createdAt,value
2022-12-19T00:01:56.219Z,11.40
2022-12-19T00:04:23.418Z,13.33
2022-12-19T00:06:51.186Z,12.70
2022-12-19T00:09:18.364Z,10.50
2022-12-19T00:11:47.730Z,10.23
2022-12-19T00:14:14.919Z,12.57
2022-12-19T00:16:42.307Z,10.77
2022-12-19T00:19:11.270Z,10.90
2022-12-19T00:21:39.219Z,9.63
2022-12-19T00:24:20.653Z,12.07
2022-12-19T00:26:49.632Z,13.60
2022-12-19T00:29:17.035Z,9.93
2022-12-19T00:31:44.334Z,12.90
2022-12-19T00:34:11.562Z,12.67
2022-12-19T00:36:38.811Z,10.67
2022-12-19T00:39:07.906Z,11.90
2022-12-19T00:41:41.838Z,12.93
2022-12-19T00:44:16.539Z,11.47
2022-12-19T00:46:45.144Z,7.70
2022-12-19T00:49:19.513Z,12.33
2022-12-19T00:51:46.882Z,10.77
2022-12-19T00:54:14.132Z,12.00
2022-12-19T00:56:42.246Z,14.53
2022-12-19T00:59:10.681Z,14.20
2022-12-19T01:01:41.356Z,8.97
2022-12-19T01:04:29.997Z,7.67
2022-12-19T01:07:01.768Z,7.43
2022-12-19T01:09:30.831Z,9.10
2022-12-19T01:12:16.602Z,10.67
2022-12-19T01:14:43.801Z,8.23
2022-12-19T01:17:11.203Z,9.43
2022-12-19T01:19:43.778Z,7.63
2022-12-19T01:22:13.257Z,7.30
2022-12-19T01:24:40.583Z,9.57
2022-12-19T01:27:07.951Z,8.00
2022-12-19T01:29:44.672Z,8.10
2022-12-19T01:32:21.250Z,10.80
2022-12-19T01:34:48.382Z,8.93
2022-12-19T01:37:18.179Z,8.23
2022-12-19T01:39:46.091Z,8.20
2022-12-19T01:42:23.471Z,7.73
2022-12-19T01:45:17.322Z,8.23
2022-12-19T01:48:16.423Z,7.53
2022-12-19T01:51:04.131Z,9.73
2022-12-19T01:53:48.742Z,8.70
2022-12-19T01:56:19.693Z,8.97
2022-12-19T01:58:49.932Z,9.00
2022-12-19T02:01:18.396Z,10.47
2022-12-19T02:03:46.177Z,8.73
2022-12-19T02:06:16.644Z,9.10
2022-12-19T02:08:47.252Z,8.03
2022-12-19T02:11:14.731Z,10.00
2022-12-19T02:13:43.586Z,9.73
2022-12-19T02:16:30.060Z,7.00
2022-12-19T02:19:22.140Z,8.93
2022-12-19T02:22:19.201Z,9.33
2022-12-19T02:25:01.654Z,8.50
2022-12-19T02:27:53.772Z,9.67
2022-12-19T02:30:53.562Z,9.70
2022-12-19T02:33:38.512Z,9.67
2022-12-19T02:36:16.499Z,13.30
2022-12-19T02:38:56.418Z,10.80
2022-12-19T02:41:29.709Z,12.00
2022-12-19T02:43:59.035Z,9.80
2022-12-19T02:46:28.150Z,11.77
2022-12-19T02:48:56.131Z,8.37
2022-12-19T02:51:23.253Z,10.07
2022-12-19T02:53:50.840Z,11.47
2022-12-19T02:56:32.468Z,9.20
2022-12-19T02:59:18.547Z,10.97
2022-12-19T03:01:55.005Z,12.10
2022-12-19T03:04:50.013Z,8.60
2022-12-19T03:07:25.487Z,6.93
2022-12-19T03:10:01.587Z,9.33
2022-12-19T03:12:38.192Z,7.70
2022-12-19T03:15:06.475Z,7.60
2022-12-19T03:17:40.264Z,9.90
2022-12-19T03:20:36.320Z,11.20
2022-12-19T03:23:03.446Z,8.90
2022-12-19T03:25:32.100Z,9.97
2022-12-19T03:28:04.828Z,9.20
2022-12-19T03:30:34.256Z,8.30
2022-12-19T03:33:02.813Z,9.30
2022-12-19T03:35:32.198Z,9.53
2022-12-19T03:38:03.883Z,7.83
2022-12-19T03:40:33.206Z,10.03
2022-12-19T03:43:11.582Z,9.37
2022-12-19T03:45:52.648Z,10.73
2022-12-19T03:48:42.102Z,10.23
2022-12-19T03:51:48.344Z,8.43
2022-12-19T03:54:27.431Z,11.77
2022-12-19T03:57:06.973Z,10.20
2022-12-19T03:59:46.120Z,11.13
2022-12-19T04:02:15.995Z,10.90
2022-12-19T04:04:50.692Z,8.80
2022-12-19T04:07:19.700Z,9.20
2022-12-19T04:09:49.244Z,10.67
2022-12-19T04:12:19.660Z,9.77
2022-12-19T04:14:47.753Z,7.40
2022-12-19T04:17:39.454Z,7.53
2022-12-19T04:20:10.627Z,7.63
2022-12-19T04:22:47.038Z,10.80
2022-12-19T04:25:25.117Z,10.03
2022-12-19T04:28:02.777Z,13.87
2022-12-19T04:30:30.317Z,10.67
2022-12-19T04:33:04.649Z,9.80
2022-12-19T04:35:32.299Z,9.83
2022-12-19T04:37:59.448Z,10.50
2022-12-19T04:40:26.719Z,13.27
2022-12-19T04:42:54.022Z,12.57
2022-12-19T04:45:21.117Z,7.73
2022-12-19T04:47:48.432Z,9.50
2022-12-19T04:50:15.629Z,8.53
2022-12-19T04:52:42.768Z,7.50
2022-12-19T04:55:10.372Z,10.30
2022-12-19T04:57:37.776Z,10.27
2022-12-19T05:00:07.179Z,8.57
2022-12-19T05:02:38.247Z,8.00
2022-12-19T05:05:06.022Z,9.37
2022-12-19T05:07:33.128Z,8.27
2022-12-19T05:10:00.389Z,11.17
2022-12-19T05:12:29.477Z,9.17
2022-12-19T05:14:56.673Z,9.00
2022-12-19T05:17:23.775Z,7.60
2022-12-19T05:19:50.987Z,10.23
2022-12-19T05:22:18.118Z,9.33
2022-12-19T05:24:45.288Z,7.47
2022-12-19T05:27:12.405Z,8.97
2022-12-19T05:29:39.566Z,8.63
2022-12-19T05:32:07.107Z,8.10
2022-12-19T05:34:34.233Z,8.37
2022-12-19T05:37:03.570Z,10.17
2022-12-19T05:39:30.876Z,8.97
2022-12-19T05:41:58.043Z,9.87
2022-12-19T05:44:26.108Z,10.10
2022-12-19T05:46:53.514Z,11.60
2022-12-19T05:49:20.662Z,10.70
2022-12-19T05:51:48.228Z,9.37
2022-12-19T05:54:15.475Z,7.20
2022-12-19T05:56:42.596Z,9.73
2022-12-19T05:59:11.288Z,11.57
2022-12-19T06:01:39.435Z,11.67
2022-12-19T06:04:07.880Z,7.17
2022-12-19T06:06:35.024Z,7.53
2022-12-19T06:09:02.801Z,9.23
2022-12-19T06:11:30.113Z,9.77
2022-12-19T06:13:57.251Z,9.80
2022-12-19T06:16:24.741Z,9.37
2022-12-19T06:18:52.039Z,8.37
2022-12-19T06:21:23.259Z,9.27
2022-12-19T06:23:50.817Z,10.00
2022-12-19T06:26:21.035Z,13.33
2022-12-19T06:28:52.855Z,12.43
2022-12-19T06:31:22.080Z,15.07
2022-12-19T06:33:49.645Z,12.63
2022-12-19T06:36:25.708Z,13.03
2022-12-19T06:38:54.248Z,12.60
2022-12-19T06:41:40.183Z,14.53
2022-12-19T06:44:09.739Z,15.57
2022-12-19T06:46:38.599Z,18.47
2022-12-19T06:49:06.776Z,9.60
2022-12-19T06:51:34.049Z,13.13
2022-12-19T06:54:01.187Z,8.83
2022-12-19T06:56:28.663Z,9.93
2022-12-19T06:58:55.915Z,10.10
2022-12-19T07:01:53.853Z,10.30
2022-12-19T07:04:49.434Z,11.40
2022-12-19T07:07:17.073Z,14.13
2022-12-19T07:09:44.212Z,15.13
2022-12-19T07:12:11.341Z,15.57
2022-12-19T07:14:38.585Z,15.83
2022-12-19T07:17:06.451Z,17.00
2022-12-19T07:19:35.031Z,14.37
2022-12-19T07:22:03.614Z,14.77
2022-12-19T07:24:31.445Z,13.37
2022-12-19T07:26:58.728Z,15.47
2022-12-19T07:29:26.631Z,14.53
2022-12-19T07:31:54.090Z,14.50
2022-12-19T07:34:21.200Z,14.20
2022-12-19T07:36:51.158Z,13.77
2022-12-19T07:39:18.619Z,13.57
2022-12-19T07:41:45.766Z,13.90
2022-12-19T07:44:13.478Z,14.57
2022-12-19T07:46:40.640Z,15.30
2022-12-19T07:49:07.826Z,16.60
2022-12-19T07:51:35.021Z,15.13
2022-12-19T07:54:04.727Z,15.93
2022-12-19T07:56:31.943Z,18.17
2022-12-19T07:58:59.786Z,14.83
2022-12-19T08:01:28.464Z,15.63
2022-12-19T08:03:56.013Z,15.00
2022-12-19T08:06:23.574Z,15.10
2022-12-19T08:08:50.915Z,13.60
2022-12-19T08:11:27.704Z,18.30
2022-12-19T08:13:55.467Z,16.83
2022-12-19T08:16:24.329Z,15.50
2022-12-19T08:18:51.782Z,15.77
2022-12-19T08:21:19.312Z,13.90
2022-12-19T08:23:46.552Z,26.80
2022-12-19T08:26:25.027Z,16.70
2022-12-19T08:28:54.303Z,14.87
2022-12-19T08:31:24.428Z,14.90
2022-12-19T08:33:53.962Z,15.17
2022-12-19T08:36:22.060Z,17.70
2022-12-19T08:38:50.147Z,15.23
2022-12-19T08:41:18.277Z,17.33
2022-12-19T08:43:50.451Z,16.47
2022-12-19T08:46:19.151Z,15.07
2022-12-19T08:48:46.901Z,17.30
2022-12-19T08:51:15.385Z,22.03
2022-12-19T08:53:44.359Z,18.57
2022-12-19T08:56:20.575Z,15.67
2022-12-19T08:58:48.113Z,16.00
2022-12-19T09:01:21.334Z,16.27
2022-12-19T09:04:06.951Z,13.10
2022-12-19T09:06:35.780Z,21.47
2022-12-19T09:09:04.809Z,18.57
2022-12-19T09:11:32.163Z,16.10
2022-12-19T09:13:59.439Z,15.07
2022-12-19T09:16:28.156Z,17.60
2022-12-19T09:18:58.735Z,19.87
2022-12-19T09:21:29.165Z,15.40
2022-12-19T09:24:05.261Z,18.57
2022-12-19T09:26:35.713Z,19.30
2022-12-19T09:29:17.476Z,19.10
2022-12-19T09:31:55.257Z,15.63
2022-12-19T09:34:37.986Z,15.80
2022-12-19T09:37:17.093Z,21.43
2022-12-19T09:39:48.586Z,17.70
2022-12-19T09:42:21.727Z,14.40
2022-12-19T09:45:08.360Z,16.10
2022-12-19T09:47:42.265Z,20.10
2022-12-19T09:50:31.415Z,17.97
2022-12-19T09:53:05.441Z,17.70
2022-12-19T09:55:37.686Z,17.47
2022-12-19T09:58:37.759Z,17.20
2022-12-19T10:01:23.312Z,17.73
2022-12-19T10:04:13.639Z,19.77
2022-12-19T10:07:13.981Z,16.90
2022-12-19T10:11:53.369Z,15.80
2022-12-19T10:13:01.703Z,13.07
2022-12-19T10:16:00.230Z,13.73
2022-12-19T10:18:56.480Z,17.50
2022-12-19T10:22:16.816Z,18.97
2022-12-19T10:25:26.612Z,15.23
2022-12-19T10:28:06.329Z,17.93
2022-12-19T10:30:38.546Z,16.00
2022-12-19T10:33:27.714Z,17.87
2022-12-19T10:36:02.258Z,23.93
2022-12-19T10:38:39.457Z,16.00
2022-12-19T10:41:31.299Z,17.27
2022-12-19T10:44:02.601Z,17.37
2022-12-19T10:46:40.253Z,15.63
2022-12-19T10:49:26.188Z,15.13
2022-12-19T10:52:01.114Z,16.07
2022-12-19T10:54:37.307Z,17.90
2022-12-19T10:57:22.935Z,17.63
2022-12-19T11:00:00.657Z,17.90
2022-12-19T11:02:39.905Z,17.33
2022-12-19T11:05:25.439Z,15.67
2022-12-19T11:08:03.029Z,16.23
2022-12-19T11:12:13.542Z,13.33
2022-12-19T11:18:51.956Z,15.73
2022-12-19T11:22:16.212Z,15.03
2022-12-19T11:29:18.726Z,15.90
2022-12-19T11:29:44.851Z,21.13
2022-12-19T11:30:21.355Z,20.77
2022-12-19T11:30:26.150Z,17.20
2022-12-19T11:33:19.333Z,15.53
2022-12-19T11:35:52.033Z,12.77
2022-12-19T11:38:45.405Z,15.60
2022-12-19T11:41:22.158Z,12.17
2022-12-19T11:44:29.847Z,12.53
2022-12-19T11:47:05.852Z,13.97
2022-12-19T11:49:42.267Z,14.93
2022-12-19T11:55:30.512Z,16.60
2022-12-19T11:57:58.426Z,15.20
2022-12-19T12:00:25.747Z,13.00
2022-12-19T12:03:22.782Z,13.20
2022-12-19T12:05:51.441Z,13.93
2022-12-19T12:10:07.612Z,13.60
2022-12-19T12:16:45.782Z,13.00
2022-12-19T12:26:11.561Z,11.33
2022-12-19T12:30:41.687Z,13.67
2022-12-19T12:31:23.393Z,14.40
2022-12-19T12:31:47.565Z,18.43
2022-12-19T12:32:04.342Z,16.93
2022-12-19T12:32:06.511Z,16.40
2022-12-19T12:35:33.434Z,13.67
2022-12-19T12:39:44.555Z,12.60
2022-12-19T12:42:23.730Z,14.17
2022-12-19T12:44:55.075Z,14.73
2022-12-19T12:47:27.231Z,13.37
2022-12-19T12:50:01.716Z,17.67
2022-12-19T12:52:45.938Z,13.83
2022-12-19T12:55:40.185Z,14.90
2022-12-19T12:58:45.734Z,14.90
2022-12-19T13:01:32.819Z,14.00
2022-12-19T13:04:05.855Z,13.20
2022-12-19T13:06:36.432Z,13.90
2022-12-19T13:09:09.675Z,15.00
2022-12-19T13:11:58.757Z,15.87
2022-12-19T13:14:34.905Z,13.87
2022-12-19T13:17:04.239Z,15.10
2022-12-19T13:19:39.776Z,16.10
2022-12-19T13:22:09.894Z,15.60
2022-12-19T13:24:50.051Z,15.87
2022-12-19T13:27:20.107Z,14.77
2022-12-19T13:30:14.824Z,15.70
2022-12-19T13:32:41.973Z,14.23
2022-12-19T13:36:15.416Z,18.00
2022-12-19T13:40:01.898Z,17.33
2022-12-19T13:41:49.228Z,14.27
2022-12-19T13:44:22.044Z,15.47
2022-12-19T13:46:49.871Z,15.90
2022-12-19T13:49:25.437Z,15.20
2022-12-19T13:51:57.592Z,12.63
2022-12-19T13:54:32.997Z,21.93
2022-12-19T13:57:04.348Z,18.53
2022-12-19T13:59:40.200Z,17.53
2022-12-19T14:02:16.034Z,17.30
2022-12-19T14:04:44.652Z,19.60
2022-12-19T14:07:36.939Z,17.30
2022-12-19T14:11:39.309Z,19.30
2022-12-19T14:13:49.029Z,21.50
2022-12-19T14:16:04.514Z,16.07
2022-12-19T14:18:44.351Z,20.60
2022-12-19T14:22:05.554Z,22.00
2022-12-19T14:24:31.801Z,18.23
2022-12-19T14:28:22.085Z,16.60
2022-12-19T14:30:26.758Z,14.40
2022-12-19T14:33:45.211Z,17.60
2022-12-19T14:36:12.072Z,16.80
2022-12-19T14:39:21.314Z,16.00
2022-12-19T14:41:48.096Z,15.40
2022-12-19T14:52:25.121Z,18.70
2022-12-19T14:53:52.728Z,18.10
2022-12-19T14:54:26.361Z,18.90
2022-12-19T14:54:27.815Z,25.57
2022-12-19T14:56:54.194Z,19.80
2022-12-19T14:59:35.229Z,17.80
2022-12-19T15:02:08.613Z,22.20
2022-12-19T15:04:54.566Z,21.00
2022-12-19T15:07:27.293Z,16.77
2022-12-19T15:11:06.716Z,22.27
2022-12-19T15:14:51.499Z,16.93
2022-12-19T15:16:06.375Z,16.50
2022-12-19T15:18:33.589Z,18.60
2022-12-19T15:21:06.754Z,19.00
2022-12-19T15:23:34.289Z,15.70
2022-12-19T15:26:08.373Z,16.13
2022-12-19T15:28:46.730Z,16.07
2022-12-19T15:31:34.878Z,18.50
2022-12-19T15:34:35.558Z,20.13
2022-12-19T15:37:04.256Z,16.50
2022-12-19T15:39:31.698Z,16.40
2022-12-19T15:42:00.236Z,13.57
2022-12-19T15:44:39.923Z,17.07
2022-12-19T15:47:37.595Z,17.70
2022-12-19T15:50:32.315Z,17.10
2022-12-19T15:53:02.296Z,17.63
2022-12-19T15:55:30.704Z,20.07
2022-12-19T15:58:01.392Z,19.97
2022-12-19T16:00:33.908Z,18.07
2022-12-19T16:05:48.929Z,24.37
2022-12-19T16:08:18.744Z,23.63
2022-12-19T16:10:54.540Z,18.17
2022-12-19T16:13:29.341Z,19.87
2022-12-19T16:15:58.254Z,20.60
2022-12-19T16:18:25.606Z,16.83
2022-12-19T16:20:53.293Z,25.70
2022-12-19T16:23:22.391Z,21.70
2022-12-19T16:25:53.387Z,21.03
2022-12-19T16:28:28.259Z,23.33
2022-12-19T16:30:59.407Z,22.40
2022-12-19T16:33:28.966Z,21.77
2022-12-19T16:36:06.075Z,20.97
2022-12-19T16:38:34.604Z,23.23
2022-12-19T16:41:02.375Z,22.97
2022-12-19T16:43:38.606Z,23.73
2022-12-19T16:46:13.305Z,29.83
2022-12-19T16:48:40.535Z,26.07
2022-12-19T16:51:29.162Z,26.37
2022-12-19T16:53:58.912Z,26.63
2022-12-19T16:56:35.372Z,29.33
2022-12-19T16:59:08.379Z,22.80
2022-12-19T17:01:36.317Z,26.20
2022-12-19T17:04:03.534Z,29.60
2022-12-19T17:06:30.753Z,30.30
2022-12-19T17:08:57.985Z,29.40
2022-12-19T17:11:27.792Z,27.00
2022-12-19T17:14:08.451Z,23.87
2022-12-19T17:16:36.613Z,30.63
2022-12-19T17:19:03.837Z,31.80
2022-12-19T17:21:31.035Z,28.90
2022-12-19T17:23:58.161Z,24.00
2022-12-19T17:26:25.290Z,25.33
2022-12-19T17:28:52.442Z,30.17
2022-12-19T17:31:26.606Z,28.77
2022-12-19T17:33:57.771Z,30.37
2022-12-19T17:36:34.792Z,28.77
2022-12-19T17:39:20.094Z,28.17
2022-12-19T17:41:48.775Z,27.20
2022-12-19T17:44:15.954Z,29.03
2022-12-19T17:46:44.473Z,30.13
2022-12-19T17:49:44.217Z,31.20
2022-12-19T17:52:15.542Z,33.53
2022-12-19T17:54:43.004Z,32.50
2022-12-19T17:57:14.602Z,32.77
2022-12-19T17:59:42.378Z,30.80
2022-12-19T18:02:23.414Z,30.13
2022-12-19T18:04:52.719Z,33.77
2022-12-19T18:07:20.371Z,27.17
2022-12-19T18:09:48.976Z,28.07
2022-12-19T18:12:16.189Z,37.10
2022-12-19T18:14:43.458Z,31.13
2022-12-19T18:17:20.561Z,30.37
2022-12-19T18:19:47.725Z,30.57
2022-12-19T18:22:15.364Z,39.83
2022-12-19T18:24:42.547Z,29.90
2022-12-19T18:27:09.863Z,35.83
2022-12-19T18:29:37.131Z,26.53
2022-12-19T18:32:04.580Z,30.83
2022-12-19T18:34:33.220Z,29.10
2022-12-19T18:37:00.446Z,31.07
2022-12-19T18:39:29.322Z,30.93
2022-12-19T18:41:56.493Z,33.03
2022-12-19T18:44:23.755Z,28.80
2022-12-19T18:46:51.608Z,35.13
2022-12-19T18:49:19.131Z,32.27
2022-12-19T18:51:46.569Z,30.70
2022-12-19T18:54:22.932Z,34.90
2022-12-19T18:56:50.172Z,33.17
2022-12-19T18:59:17.303Z,39.70
2022-12-19T19:01:46.960Z,36.20
2022-12-19T19:04:17.908Z,32.50
2022-12-19T19:06:51.990Z,31.17
2022-12-19T19:09:21.015Z,38.33
2022-12-19T19:11:48.249Z,35.73
2022-12-19T19:14:15.574Z,28.97
2022-12-19T19:16:45.297Z,36.83
2022-12-19T19:19:17.364Z,34.70
2022-12-19T19:21:44.749Z,34.17
2022-12-19T19:24:24.098Z,32.57
2022-12-19T19:26:51.234Z,32.03
2022-12-19T19:29:19.787Z,33.10
2022-12-19T19:31:50.046Z,34.57
2022-12-19T19:34:33.636Z,36.07
2022-12-19T19:37:03.984Z,34.23
2022-12-19T19:39:33.856Z,35.70
2022-12-19T19:42:01.451Z,32.00
2022-12-19T19:44:29.912Z,30.47
2022-12-19T19:46:57.185Z,39.27
2022-12-19T19:49:24.987Z,33.50
2022-12-19T19:51:55.690Z,31.13
2022-12-19T19:54:27.532Z,29.83
2022-12-19T19:56:54.889Z,30.57
2022-12-19T19:59:22.382Z,31.47
2022-12-19T20:01:54.367Z,31.67
2022-12-19T20:04:22.095Z,30.30
2022-12-19T20:06:49.267Z,32.63
2022-12-19T20:09:16.764Z,33.87
2022-12-19T20:11:43.875Z,33.17
2022-12-19T20:14:11.057Z,29.17
2022-12-19T20:16:38.269Z,29.37
2022-12-19T20:19:05.781Z,30.93
2022-12-19T20:21:33.430Z,34.60
2022-12-19T20:24:00.874Z,33.50
2022-12-19T20:26:28.410Z,34.57
2022-12-19T20:28:55.791Z,29.47
2022-12-19T20:31:24.511Z,26.93
2022-12-19T20:33:54.757Z,31.00
2022-12-19T20:36:23.275Z,27.83
2022-12-19T20:38:50.841Z,31.50
2022-12-19T20:41:18.467Z,34.70
2022-12-19T20:43:45.857Z,29.50
2022-12-19T20:46:15.765Z,26.83
2022-12-19T20:48:43.780Z,33.83
2022-12-19T20:51:11.993Z,31.10
2022-12-19T20:53:41.342Z,26.20
2022-12-19T20:56:11.115Z,24.50
2022-12-19T20:58:38.512Z,25.20
2022-12-19T21:01:12.054Z,28.37
2022-12-19T21:03:40.633Z,26.67
2022-12-19T21:06:09.658Z,24.73
2022-12-19T21:08:37.768Z,27.50
2022-12-19T21:11:07.127Z,26.87
2022-12-19T21:13:35.192Z,24.57
2022-12-19T21:16:07.131Z,27.63
2022-12-19T21:18:35.797Z,30.83
2022-12-19T21:21:04.640Z,30.37
2022-12-19T21:23:31.821Z,28.03
2022-12-19T21:26:01.033Z,25.57
2022-12-19T21:28:28.843Z,33.50
2022-12-19T21:31:01.343Z,30.87
2022-12-19T21:33:29.192Z,28.40
2022-12-19T21:35:56.653Z,29.27
2022-12-19T21:38:24.539Z,34.10
2022-12-19T21:40:51.735Z,34.97
2022-12-19T21:43:18.942Z,31.97
2022-12-19T21:45:46.113Z,30.67
2022-12-19T21:48:13.292Z,31.43
2022-12-19T21:50:40.487Z,33.13
2022-12-19T21:53:07.617Z,30.27
2022-12-19T21:55:34.897Z,30.77
2022-12-19T21:58:02.067Z,31.47
2022-12-19T22:00:29.298Z,35.00
2022-12-19T22:03:13.246Z,32.07
2022-12-19T22:05:41.031Z,26.50
2022-12-19T22:08:10.355Z,33.10
2022-12-19T22:10:39.742Z,23.60
2022-12-19T22:13:06.913Z,23.57
2022-12-19T22:15:36.465Z,29.63
2022-12-19T22:18:03.879Z,26.33
2022-12-19T22:20:31.000Z,24.50
2022-12-19T22:22:58.165Z,25.77
2022-12-19T22:25:25.345Z,25.27
2022-12-19T22:27:55.913Z,30.30
2022-12-19T22:30:23.094Z,25.97
2022-12-19T22:32:50.213Z,32.30
2022-12-19T22:35:17.788Z,26.57
2022-12-19T22:37:45.126Z,26.60
2022-12-19T22:40:13.347Z,28.07
2022-12-19T22:42:40.496Z,22.80
2022-12-19T22:45:08.203Z,34.90
2022-12-19T22:47:35.779Z,31.87
2022-12-19T22:50:02.964Z,30.93
2022-12-19T22:52:30.088Z,32.43
2022-12-19T22:54:57.223Z,26.87
2022-12-19T22:57:24.427Z,26.50
2022-12-19T22:59:51.668Z,32.13
2022-12-19T23:02:18.874Z,30.00
2022-12-19T23:04:46.093Z,31.67
2022-12-19T23:07:13.170Z,31.90
2022-12-19T23:09:40.332Z,29.43
2022-12-19T23:12:07.569Z,29.97
2022-12-19T23:14:34.696Z,29.17
2022-12-19T23:17:01.778Z,30.03
2022-12-19T23:19:28.950Z,27.73
2022-12-19T23:21:56.190Z,24.00
2022-12-19T23:24:23.543Z,24.40
2022-12-19T23:26:53.298Z,27.33
2022-12-19T23:29:20.484Z,25.20
2022-12-19T23:31:48.082Z,30.90
2022-12-19T23:34:17.025Z,23.20
2022-12-19T23:37:10.192Z,28.77
2022-12-19T23:39:32.111Z,26.83
2022-12-19T23:41:59.276Z,28.70
2022-12-19T23:44:27.150Z,22.67
2022-12-19T23:47:00.829Z,24.37
2022-12-19T23:49:30.138Z,25.73
2022-12-19T23:51:57.274Z,25.27
2022-12-19T23:54:24.457Z,25.50
2022-12-19T23:56:53.486Z,26.87
2022-12-19T23:59:20.694Z,25.73
